createdAt,value
2023-01-19T00:00:02.109Z,16.57
2023-01-19T00:02:34.840Z,16.27
2023-01-19T00:05:01.871Z,16.03
2023-01-19T00:08:14.519Z,16.83
2023-01-19T00:10:40.225Z,15.80
2023-01-19T00:13:24.819Z,16.83
2023-01-19T00:15:47.307Z,16.03
2023-01-19T00:18:20.132Z,16.30
2023-01-19T00:20:43.191Z,14.67
2023-01-19T00:23:07.615Z,15.57
2023-01-19T00:25:31.810Z,15.13
2023-01-19T00:27:56.022Z,14.53
2023-01-19T00:30:20.005Z,15.43
2023-01-19T00:32:42.334Z,15.90
2023-01-19T00:35:05.135Z,15.53
2023-01-19T00:37:27.551Z,14.87
2023-01-19T00:39:49.986Z,15.13
2023-01-19T00:42:32.267Z,14.97
2023-01-19T00:44:55.507Z,14.37
2023-01-19T00:47:19.018Z,16.60
2023-01-19T00:49:41.552Z,16.83
2023-01-19T00:52:04.391Z,15.37
2023-01-19T00:57:27.859Z,16.23
2023-01-19T00:59:50.525Z,14.73
2023-01-19T01:02:19.986Z,15.73
2023-01-19T01:04:42.686Z,15.73
2023-01-19T01:07:05.658Z,16.47
2023-01-19T01:09:28.647Z,14.73
2023-01-19T01:11:51.045Z,14.80
2023-01-19T01:14:18.219Z,14.63
2023-01-19T01:16:41.259Z,14.80
2023-01-19T01:19:05.863Z,15.20
2023-01-19T01:21:28.379Z,15.37
2023-01-19T01:23:51.239Z,15.13
2023-01-19T01:26:13.669Z,15.43
2023-01-19T01:28:36.166Z,15.80
2023-01-19T01:30:58.365Z,15.63
2023-01-19T01:33:41.091Z,15.33
2023-01-19T01:36:05.307Z,16.47
2023-01-19T01:38:27.958Z,15.87
2023-01-19T01:40:50.247Z,14.67
2023-01-19T01:43:13.714Z,14.63
2023-01-19T01:45:38.525Z,15.73
2023-01-19T01:48:10.283Z,16.40
2023-01-19T01:50:38.585Z,16.47
2023-01-19T01:53:08.228Z,15.17
2023-01-19T01:55:32.029Z,15.87
2023-01-19T01:57:57.683Z,16.63
2023-01-19T02:00:20.367Z,15.13
2023-01-19T02:02:55.039Z,15.70
2023-01-19T02:05:25.022Z,16.97
2023-01-19T02:08:19.826Z,15.57
2023-01-19T02:11:01.510Z,15.77
2023-01-19T02:13:25.964Z,15.77
2023-01-19T02:15:52.733Z,17.27
2023-01-19T02:18:15.238Z,16.10
2023-01-19T02:20:40.441Z,16.57
2023-01-19T02:23:04.772Z,16.77
2023-01-19T02:25:35.997Z,16.33
2023-01-19T02:28:00.826Z,16.57
2023-01-19T02:30:23.629Z,16.03
2023-01-19T02:32:46.638Z,16.03
2023-01-19T02:35:09.508Z,16.57
2023-01-19T02:37:37.577Z,16.10
2023-01-19T02:40:11.687Z,14.80
2023-01-19T02:42:56.873Z,16.37
2023-01-19T02:45:23.203Z,15.03
2023-01-19T02:50:41.937Z,15.53
2023-01-19T02:53:23.198Z,15.37
2023-01-19T02:56:05.940Z,13.93
2023-01-19T02:58:28.167Z,13.53
2023-01-19T03:00:59.766Z,16.33
2023-01-19T03:03:33.020Z,13.33
2023-01-19T03:05:58.536Z,14.27
2023-01-19T03:08:20.783Z,13.30
2023-01-19T03:10:52.124Z,12.50
2023-01-19T03:13:24.292Z,12.00
2023-01-19T03:15:49.893Z,13.20
2023-01-19T03:18:16.179Z,12.40
2023-01-19T03:20:39.341Z,12.73
2023-01-19T03:23:05.385Z,11.83
2023-01-19T03:25:28.918Z,12.90
2023-01-19T03:27:53.702Z,12.97
2023-01-19T03:30:20.984Z,12.23
2023-01-19T03:32:48.800Z,12.40
2023-01-19T03:35:13.097Z,13.20
2023-01-19T03:37:38.248Z,14.00
2023-01-19T03:40:00.956Z,12.87
2023-01-19T03:42:23.985Z,13.80
2023-01-19T03:44:50.638Z,13.07
2023-01-19T03:47:14.595Z,13.07
2023-01-19T03:49:37.937Z,12.80
2023-01-19T03:52:00.526Z,12.40
2023-01-19T03:54:25.285Z,12.50
2023-01-19T03:56:48.084Z,12.50
2023-01-19T03:59:10.836Z,13.37
2023-01-19T04:01:33.553Z,11.60
2023-01-19T04:03:56.227Z,12.47
2023-01-19T04:06:22.138Z,13.13
2023-01-19T04:08:44.707Z,11.67
2023-01-19T04:11:08.300Z,11.50
2023-01-19T04:13:37.825Z,12.63
2023-01-19T04:16:24.913Z,12.03
2023-01-19T04:18:47.508Z,13.50
2023-01-19T04:21:09.881Z,12.67
2023-01-19T04:23:32.637Z,12.20
2023-01-19T04:25:59.796Z,13.37
2023-01-19T04:28:22.205Z,11.57
2023-01-19T04:30:45.033Z,12.63
2023-01-19T04:33:07.287Z,12.10
2023-01-19T04:35:29.648Z,11.80
2023-01-19T04:37:52.273Z,10.60
2023-01-19T04:40:14.712Z,12.30
2023-01-19T04:42:36.894Z,12.50
2023-01-19T04:44:59.677Z,12.50
2023-01-19T04:47:22.027Z,11.93
2023-01-19T04:49:44.535Z,11.80
2023-01-19T04:52:07.173Z,11.83
2023-01-19T04:54:29.735Z,11.73
2023-01-19T04:56:52.012Z,11.67
2023-01-19T04:59:14.285Z,12.23
2023-01-19T05:01:36.789Z,11.83
2023-01-19T05:04:00.094Z,13.07
2023-01-19T05:06:22.312Z,12.90
2023-01-19T05:08:45.449Z,13.77
2023-01-19T05:11:11.200Z,13.00
2023-01-19T05:13:33.530Z,12.30
2023-01-19T05:15:55.826Z,12.83
2023-01-19T05:18:18.405Z,13.47
2023-01-19T05:20:41.210Z,13.00
2023-01-19T05:23:03.832Z,12.77
2023-01-19T05:25:26.302Z,12.07
2023-01-19T05:27:48.786Z,12.07
2023-01-19T05:30:11.791Z,11.83
2023-01-19T05:32:42.836Z,11.90
2023-01-19T05:35:05.276Z,10.87
2023-01-19T05:37:27.498Z,12.20
2023-01-19T05:39:49.777Z,11.97
2023-01-19T05:42:12.174Z,10.90
2023-01-19T05:44:34.512Z,12.20
2023-01-19T05:46:56.870Z,11.57
2023-01-19T05:49:19.401Z,11.70
2023-01-19T05:51:45.387Z,12.73
2023-01-19T05:54:08.214Z,10.83
2023-01-19T05:56:30.966Z,12.10
2023-01-19T05:58:53.145Z,11.50
2023-01-19T06:01:15.530Z,11.57
2023-01-19T06:03:39.504Z,11.63
2023-01-19T06:06:02.422Z,11.53
2023-01-19T06:08:24.846Z,11.87
2023-01-19T06:10:47.214Z,10.43
2023-01-19T06:13:11.194Z,10.90
2023-01-19T06:15:33.607Z,11.83
2023-01-19T06:17:55.993Z,12.13
2023-01-19T06:20:18.839Z,12.30
2023-01-19T06:22:41.208Z,11.23
2023-01-19T06:25:03.863Z,12.77
2023-01-19T06:27:26.205Z,12.07
2023-01-19T06:29:48.680Z,11.43
2023-01-19T06:32:11.290Z,12.80
2023-01-19T06:34:33.779Z,12.03
2023-01-19T06:36:59.442Z,13.30
2023-01-19T06:39:22.107Z,13.17
2023-01-19T06:41:44.447Z,12.20
2023-01-19T06:44:32.321Z,12.80
2023-01-19T06:47:15.193Z,12.07
2023-01-19T06:49:37.327Z,12.13
2023-01-19T06:52:03.160Z,13.60
2023-01-19T06:54:28.554Z,12.57
2023-01-19T06:56:51.757Z,12.20
2023-01-19T06:59:14.134Z,12.03
2023-01-19T07:01:36.987Z,12.20
2023-01-19T07:03:59.367Z,12.00
2023-01-19T07:06:21.698Z,12.23
2023-01-19T07:08:44.310Z,12.60
2023-01-19T07:11:24.921Z,12.10
2023-01-19T07:13:54.488Z,10.80
2023-01-19T07:16:17.051Z,11.90
2023-01-19T07:18:39.833Z,11.77
2023-01-19T07:21:02.196Z,10.90
2023-01-19T07:23:24.693Z,11.40
2023-01-19T07:25:47.033Z,10.80
2023-01-19T07:28:09.319Z,10.97
2023-01-19T07:30:31.652Z,9.70
2023-01-19T07:32:58.552Z,10.47
2023-01-19T07:35:21.915Z,9.30
2023-01-19T07:37:47.675Z,10.07
2023-01-19T07:40:10.617Z,10.30
2023-01-19T07:42:33.157Z,9.97
2023-01-19T07:44:55.631Z,10.30
2023-01-19T07:47:18.019Z,10.80
2023-01-19T07:49:53.200Z,10.70
2023-01-19T07:52:15.703Z,10.87
2023-01-19T07:54:38.727Z,10.00
2023-01-19T07:57:32.218Z,10.63
2023-01-19T07:59:54.657Z,10.30
2023-01-19T08:11:12.278Z,10.83
2023-01-19T08:16:11.612Z,10.20
2023-01-19T08:18:33.900Z,10.27
2023-01-19T08:20:56.398Z,9.63
2023-01-19T08:23:19.708Z,10.23
2023-01-19T08:26:08.654Z,9.20
2023-01-19T08:28:31.601Z,10.13
2023-01-19T08:30:55.538Z,9.20
2023-01-19T08:33:18.048Z,10.23
2023-01-19T08:35:41.967Z,9.67
2023-01-19T08:38:05.477Z,9.57
2023-01-19T08:40:37.947Z,9.67
2023-01-19T08:43:04.985Z,9.50
2023-01-19T08:45:29.513Z,9.83
2023-01-19T08:47:51.891Z,9.20
2023-01-19T08:53:37.797Z,8.97
2023-01-19T08:56:01.365Z,9.23
2023-01-19T08:58:24.063Z,8.63
2023-01-19T09:00:46.329Z,8.63
2023-01-19T09:03:09.806Z,9.27
2023-01-19T09:05:37.568Z,8.70
2023-01-19T09:08:00.298Z,8.37
2023-01-19T09:10:23.077Z,8.77
2023-01-19T09:12:46.585Z,8.80
2023-01-19T09:15:11.260Z,8.80
2023-01-19T09:17:34.702Z,8.67
2023-01-19T09:19:57.019Z,9.37
2023-01-19T09:22:19.451Z,9.20
2023-01-19T09:24:41.700Z,9.27
2023-01-19T09:27:04.314Z,8.47
2023-01-19T09:29:29.829Z,8.90
2023-01-19T09:31:52.951Z,9.43
2023-01-19T09:34:18.520Z,9.80
2023-01-19T09:36:44.137Z,9.60
2023-01-19T09:39:07.703Z,8.70
2023-01-19T09:41:30.471Z,10.00
2023-01-19T09:43:58.206Z,9.10
2023-01-19T09:46:24.730Z,10.07
2023-01-19T09:49:04.701Z,9.60
2023-01-19T09:51:33.944Z,9.53
2023-01-19T09:54:08.847Z,9.33
2023-01-19T09:56:34.641Z,10.13
2023-01-19T09:58:57.363Z,9.83
2023-01-19T10:01:19.856Z,8.80
2023-01-19T10:03:46.947Z,9.27
2023-01-19T10:06:12.538Z,8.97
2023-01-19T10:08:52.489Z,9.07
2023-01-19T10:11:26.321Z,8.17
2023-01-19T10:13:52.366Z,9.07
2023-01-19T10:16:35.985Z,9.93
2023-01-19T10:19:13.543Z,8.80
2023-01-19T10:21:40.007Z,8.93
2023-01-19T10:24:09.960Z,9.67
2023-01-19T10:26:40.955Z,9.30
2023-01-19T10:29:14.988Z,9.60
2023-01-19T10:31:38.108Z,9.03
2023-01-19T10:34:00.613Z,8.93
2023-01-19T10:36:27.090Z,9.03
2023-01-19T10:38:49.987Z,9.60
2023-01-19T10:41:15.636Z,9.30
2023-01-19T10:43:39.779Z,9.17
2023-01-19T10:46:06.032Z,8.43
2023-01-19T10:48:37.005Z,8.13
2023-01-19T10:51:13.830Z,8.53
2023-01-19T10:53:36.202Z,8.13
2023-01-19T10:56:14.516Z,8.40
2023-01-19T10:58:37.033Z,8.40
2023-01-19T11:01:13.324Z,8.80
2023-01-19T11:03:35.649Z,9.63
2023-01-19T11:06:16.714Z,7.77
2023-01-19T11:08:39.198Z,9.77
2023-01-19T11:11:08.047Z,8.70
2023-01-19T11:13:30.411Z,9.63
2023-01-19T11:15:57.612Z,8.77
2023-01-19T11:18:40.254Z,8.10
2023-01-19T11:21:06.665Z,8.90
2023-01-19T11:23:30.312Z,9.57
2023-01-19T11:25:53.612Z,8.93
2023-01-19T11:28:27.553Z,9.20
2023-01-19T11:31:03.397Z,8.33
2023-01-19T11:33:27.418Z,8.30
2023-01-19T11:35:51.311Z,9.40
2023-01-19T11:38:13.455Z,8.70
2023-01-19T11:40:36.165Z,8.03
2023-01-19T11:42:59.265Z,8.77
2023-01-19T11:45:21.855Z,8.60
2023-01-19T11:47:45.131Z,8.57
2023-01-19T11:50:29.005Z,8.73
2023-01-19T11:53:04.048Z,9.23
2023-01-19T11:55:34.805Z,9.53
2023-01-19T11:57:57.110Z,8.77
2023-01-19T12:00:36.090Z,8.57
2023-01-19T12:03:03.879Z,8.30
2023-01-19T12:05:27.885Z,8.80
2023-01-19T12:07:50.950Z,8.73
2023-01-19T12:10:13.146Z,9.03
2023-01-19T12:12:38.353Z,8.57
2023-01-19T12:15:07.442Z,9.73
2023-01-19T12:17:32.699Z,8.90
2023-01-19T12:20:04.737Z,8.80
2023-01-19T12:22:28.989Z,8.87
2023-01-19T12:24:58.339Z,9.63
2023-01-19T12:27:27.593Z,9.43
2023-01-19T12:29:53.217Z,9.13
2023-01-19T12:32:18.258Z,9.30
2023-01-19T12:34:41.725Z,9.40
2023-01-19T12:37:05.469Z,9.60
2023-01-19T12:39:27.800Z,8.83
2023-01-19T12:42:04.176Z,8.63
2023-01-19T12:44:30.400Z,9.63
2023-01-19T12:46:52.875Z,9.23
2023-01-19T12:49:32.818Z,9.53
2023-01-19T12:52:11.673Z,9.50
2023-01-19T12:54:35.495Z,10.23
2023-01-19T12:57:02.991Z,10.07
2023-01-19T12:59:26.552Z,10.53
2023-01-19T13:02:08.863Z,10.10
2023-01-19T13:04:32.375Z,9.73
2023-01-19T13:06:55.395Z,10.07
2023-01-19T13:09:33.971Z,10.63
2023-01-19T13:12:14.739Z,10.30
2023-01-19T13:14:38.029Z,10.20
2023-01-19T13:17:01.550Z,10.20
2023-01-19T13:19:33.072Z,10.03
2023-01-19T13:21:55.583Z,10.80
2023-01-19T13:24:24.823Z,9.90
2023-01-19T13:26:50.137Z,9.30
2023-01-19T13:29:39.213Z,9.30
2023-01-19T13:32:02.955Z,9.13
2023-01-19T13:34:26.633Z,10.20
2023-01-19T13:36:52.661Z,10.20
2023-01-19T13:39:18.499Z,9.30
2023-01-19T13:41:41.521Z,10.90
2023-01-19T13:44:25.043Z,10.00
2023-01-19T13:46:48.307Z,9.57
2023-01-19T13:49:29.312Z,9.57
2023-01-19T13:52:10.472Z,9.43
2023-01-19T13:54:32.784Z,10.57
2023-01-19T13:56:55.040Z,10.50
2023-01-19T13:59:17.334Z,10.03
2023-01-19T14:01:44.101Z,10.20
2023-01-19T14:04:06.748Z,9.47
2023-01-19T14:06:34.064Z,9.10
2023-01-19T14:09:09.637Z,9.73
2023-01-19T14:11:31.907Z,9.53
2023-01-19T14:13:54.317Z,10.13
2023-01-19T14:16:17.860Z,9.63
2023-01-19T14:18:40.624Z,10.47
2023-01-19T14:21:03.310Z,9.90
2023-01-19T14:23:38.039Z,9.43
2023-01-19T14:26:00.266Z,9.53
2023-01-19T14:28:29.820Z,9.63
2023-01-19T14:30:59.455Z,10.30
2023-01-19T14:33:40.455Z,10.97
2023-01-19T14:36:33.210Z,10.53
2023-01-19T14:38:57.174Z,10.93
2023-01-19T14:41:27.954Z,11.20
2023-01-19T14:43:50.289Z,10.57
2023-01-19T14:46:21.810Z,11.30
2023-01-19T14:48:51.397Z,11.33
2023-01-19T14:51:17.697Z,11.67
2023-01-19T14:53:40.073Z,10.87
2023-01-19T14:56:04.632Z,11.03
2023-01-19T14:58:28.625Z,11.17
2023-01-19T15:00:55.569Z,10.90
2023-01-19T15:03:17.889Z,10.70
2023-01-19T15:05:40.873Z,10.70
2023-01-19T15:08:03.885Z,10.67
2023-01-19T15:10:27.735Z,10.27
2023-01-19T15:12:50.976Z,10.00
2023-01-19T15:15:22.281Z,10.83
2023-01-19T15:17:44.607Z,10.20
2023-01-19T15:20:12.242Z,11.77
2023-01-19T15:22:34.465Z,11.20
2023-01-19T15:24:59.943Z,10.57
2023-01-19T15:27:23.293Z,11.47
2023-01-19T15:29:46.100Z,12.03
2023-01-19T15:32:14.787Z,11.93
2023-01-19T15:34:37.003Z,12.23
2023-01-19T15:36:59.860Z,11.93
2023-01-19T15:39:22.145Z,11.27
2023-01-19T15:41:44.680Z,11.87
2023-01-19T15:44:08.450Z,12.73
2023-01-19T15:46:30.674Z,11.83
2023-01-19T15:48:54.613Z,12.40
2023-01-19T15:51:18.245Z,11.77
2023-01-19T15:53:41.343Z,12.27
2023-01-19T15:56:03.576Z,10.40
2023-01-19T15:58:26.673Z,12.23
2023-01-19T16:00:58.904Z,12.57
2023-01-19T16:03:22.791Z,11.23
2023-01-19T16:05:46.659Z,11.77
2023-01-19T16:08:08.855Z,10.93
2023-01-19T16:10:32.641Z,11.67
2023-01-19T16:12:54.961Z,10.80
2023-01-19T16:15:17.771Z,10.63
2023-01-19T16:17:40.257Z,11.40
2023-01-19T16:20:02.654Z,10.73
2023-01-19T16:22:24.864Z,10.33
2023-01-19T16:24:47.195Z,11.00
2023-01-19T16:27:09.415Z,10.30
2023-01-19T16:29:32.115Z,9.40
2023-01-19T16:31:54.731Z,10.50
2023-01-19T16:34:18.670Z,9.90
2023-01-19T16:36:41.965Z,11.10
2023-01-19T16:39:08.499Z,9.67
2023-01-19T16:41:30.801Z,9.90
2023-01-19T16:43:57.389Z,11.03
2023-01-19T16:46:27.915Z,11.90
2023-01-19T16:48:51.606Z,12.03
2023-01-19T16:51:13.901Z,12.03
2023-01-19T16:53:36.076Z,11.57
2023-01-19T16:55:58.388Z,12.80
2023-01-19T16:58:20.666Z,10.10
2023-01-19T17:00:42.892Z,12.03
2023-01-19T17:03:05.139Z,10.27
2023-01-19T17:05:27.603Z,10.80
2023-01-19T17:07:49.833Z,10.13
2023-01-19T17:10:12.440Z,10.10
2023-01-19T17:12:35.058Z,10.33
2023-01-19T17:14:57.301Z,10.40
2023-01-19T17:17:19.774Z,10.07
2023-01-19T17:19:42.034Z,10.30
2023-01-19T17:22:04.237Z,9.87
2023-01-19T17:24:26.705Z,11.57
2023-01-19T17:26:49.023Z,10.43
2023-01-19T17:29:11.233Z,10.93
2023-01-19T17:31:36.616Z,11.83
2023-01-19T17:33:59.480Z,10.43
2023-01-19T17:36:22.969Z,11.13
2023-01-19T17:38:45.362Z,11.27
2023-01-19T17:41:18.130Z,21.53
2023-01-19T17:43:40.503Z,13.13
2023-01-19T17:46:02.655Z,12.10
2023-01-19T17:48:24.837Z,10.83
2023-01-19T17:50:47.146Z,10.47
2023-01-19T17:53:09.445Z,10.67
2023-01-19T17:55:34.678Z,10.63
2023-01-19T17:58:00.226Z,9.30
2023-01-19T18:00:22.778Z,8.67
2023-01-19T18:02:45.124Z,8.20
2023-01-19T18:05:12.510Z,8.33
2023-01-19T18:07:34.743Z,8.47
2023-01-19T18:09:58.270Z,7.93
2023-01-19T18:12:23.109Z,8.07
2023-01-19T18:14:45.370Z,8.93
2023-01-19T18:17:08.000Z,9.23
2023-01-19T18:19:30.169Z,8.77
2023-01-19T18:21:52.479Z,7.60
2023-01-19T18:24:14.801Z,7.17
2023-01-19T18:26:38.369Z,7.43
2023-01-19T18:29:01.023Z,8.50
2023-01-19T18:31:23.454Z,7.90
2023-01-19T18:33:45.712Z,7.53
2023-01-19T18:36:08.588Z,6.93
2023-01-19T18:38:30.933Z,7.80
2023-01-19T18:41:07.199Z,7.87
2023-01-19T18:43:29.569Z,7.53
2023-01-19T18:45:51.917Z,7.77
2023-01-19T18:48:14.108Z,7.80
2023-01-19T18:50:38.200Z,10.43
2023-01-19T18:53:00.489Z,11.80
2023-01-19T18:55:24.049Z,9.23
2023-01-19T18:57:46.228Z,9.23
2023-01-19T19:00:09.013Z,10.17
2023-01-19T19:02:31.374Z,9.83
2023-01-19T19:04:53.573Z,9.40
2023-01-19T19:07:15.831Z,8.57
2023-01-19T19:09:38.082Z,9.70
2023-01-19T19:12:00.507Z,12.50
2023-01-19T19:14:22.743Z,12.47
2023-01-19T19:16:45.103Z,14.63
2023-01-19T19:19:08.434Z,11.63
2023-01-19T19:21:30.797Z,14.83
2023-01-19T19:23:54.405Z,13.50
2023-01-19T19:26:19.481Z,13.87
2023-01-19T19:28:41.737Z,11.67
2023-01-19T19:31:08.988Z,13.70
2023-01-19T19:33:31.327Z,11.13
2023-01-19T19:35:57.261Z,11.00
2023-01-19T19:38:19.472Z,11.27
2023-01-19T19:40:41.665Z,13.97
2023-01-19T19:43:07.607Z,11.50
2023-01-19T19:45:30.439Z,10.33
2023-01-19T19:47:52.655Z,14.37
2023-01-19T19:50:15.365Z,10.57
2023-01-19T19:52:41.663Z,10.37
2023-01-19T19:55:04.724Z,10.70
2023-01-19T19:57:27.064Z,12.60
2023-01-19T19:59:51.411Z,11.77
2023-01-19T20:02:15.125Z,10.17
2023-01-19T20:04:37.727Z,9.60
2023-01-19T20:07:00.197Z,10.40
2023-01-19T20:09:22.696Z,9.77
2023-01-19T20:11:46.719Z,9.77
2023-01-19T20:14:13.078Z,9.80
2023-01-19T20:16:36.184Z,10.43
2023-01-19T20:18:58.522Z,10.27
2023-01-19T20:21:25.535Z,9.43
2023-01-19T20:23:49.396Z,11.13
2023-01-19T20:26:12.621Z,9.80
2023-01-19T20:28:35.547Z,10.70
2023-01-19T20:31:08.573Z,9.50
2023-01-19T20:33:31.149Z,9.73
2023-01-19T20:35:53.619Z,9.97
2023-01-19T20:38:15.916Z,10.07
2023-01-19T20:40:38.357Z,10.23
2023-01-19T20:43:03.777Z,9.50
2023-01-19T20:45:26.387Z,10.03
2023-01-19T20:47:48.839Z,9.60
2023-01-19T20:50:11.892Z,9.30
2023-01-19T20:52:36.004Z,10.07
2023-01-19T20:55:00.569Z,10.47
2023-01-19T20:57:22.988Z,9.80
2023-01-19T20:59:45.412Z,11.17
2023-01-19T21:02:14.324Z,11.13
2023-01-19T21:04:37.049Z,10.57
2023-01-19T21:07:00.055Z,11.50
2023-01-19T21:09:22.875Z,10.60
2023-01-19T21:11:45.785Z,10.30
2023-01-19T21:14:08.399Z,10.03
2023-01-19T21:16:32.176Z,10.17
2023-01-19T21:21:44.543Z,12.33
2023-01-19T21:24:07.340Z,11.13
2023-01-19T21:26:30.311Z,11.27
2023-01-19T21:29:01.084Z,10.40
2023-01-19T21:31:27.057Z,11.40
2023-01-19T21:33:53.428Z,10.93
2023-01-19T21:36:15.781Z,11.23
2023-01-19T21:38:39.971Z,10.30
2023-01-19T21:41:24.752Z,8.90
2023-01-19T21:43:47.987Z,9.87
2023-01-19T21:46:10.679Z,11.63
2023-01-19T21:48:51.522Z,12.57
2023-01-19T21:51:14.543Z,12.27
2023-01-19T21:53:37.905Z,11.80
2023-01-19T21:56:00.566Z,12.37
2023-01-19T21:58:26.048Z,13.40
2023-01-19T22:00:51.718Z,16.70
2023-01-19T22:03:14.350Z,16.13
2023-01-19T22:05:37.270Z,13.70
2023-01-19T22:08:00.071Z,12.47
2023-01-19T22:10:22.534Z,11.70
2023-01-19T22:12:51.302Z,10.97
2023-01-19T22:15:13.716Z,11.83
2023-01-19T22:17:36.308Z,12.63
2023-01-19T22:19:58.813Z,13.17
2023-01-19T22:22:21.210Z,13.07
2023-01-19T22:24:46.821Z,13.97
2023-01-19T22:27:34.454Z,14.37
2023-01-19T22:29:56.710Z,14.73
2023-01-19T22:32:34.749Z,14.50
2023-01-19T22:34:57.152Z,12.93
2023-01-19T22:37:19.471Z,12.33
2023-01-19T22:39:43.279Z,12.70
2023-01-19T22:42:05.660Z,12.13
2023-01-19T22:44:28.241Z,12.07
2023-01-19T22:46:51.548Z,11.20
2023-01-19T22:49:14.988Z,11.83
2023-01-19T22:51:37.428Z,13.83
2023-01-19T22:54:00.310Z,13.83
2023-01-19T22:56:32.715Z,13.00
2023-01-19T22:58:55.239Z,12.30
2023-01-19T23:01:19.271Z,13.67
2023-01-19T23:03:41.966Z,13.53
2023-01-19T23:06:05.536Z,12.63
2023-01-19T23:08:28.406Z,14.00
2023-01-19T23:10:59.979Z,12.53
2023-01-19T23:13:22.325Z,13.30
2023-01-19T23:15:44.844Z,13.90
2023-01-19T23:18:07.846Z,13.30
2023-01-19T23:20:30.864Z,13.37
2023-01-19T23:22:53.327Z,12.53
2023-01-19T23:25:16.061Z,13.80
2023-01-19T23:27:38.577Z,13.50
2023-01-19T23:30:00.851Z,15.23
2023-01-19T23:32:23.615Z,15.67
2023-01-19T23:34:46.095Z,17.33
2023-01-19T23:37:08.591Z,17.67
2023-01-19T23:39:31.070Z,15.83
2023-01-19T23:41:53.793Z,14.67
2023-01-19T23:44:17.253Z,14.37
2023-01-19T23:46:48.693Z,14.57
2023-01-19T23:49:11.201Z,13.53
2023-01-19T23:51:40.587Z,12.70
2023-01-19T23:54:03.087Z,13.70
2023-01-19T23:56:30.197Z,13.63
2023-01-19T23:58:54.173Z,13.57
